Latest Weather Observations for Edinburgh

IDS60901

Issued at 5:35 pm CDT Friday 28 November 2014 (issued every 10 minutes, with the page automatically refreshed every 10 minutes)

About weather observations | Map of Adelaide area stations | Latest observations for Adelaide area | Other Formats
Station Details ID: 023083 Name: EDINBURGH RAAF Lat: -34.71 Lon: 138.62 Height: 16.54 m
Data from the previous 72 hours. | See also: Recent months at Edinburgh
Date/Time
CDT
Tmp

°C
App
Tmp
°C
Dew
Point
°C
Rel
Hum
%
Delta-T

°C
Wind Press
QNH
hPa
Press
MSL
hPa
Rain
since
9 am
mm
Dir
 
Spd
km/h
Gust
km/h
Spd
kts
Gust
kts
28/05:30pm 29.6 22.8 1.1 16 13.8 SSW 26 35 14 19 1014.5 1014.4 0.0
28/05:00pm 29.8 23.5 3.7 19 13.3 SW 26 32 14 17 1014.6 1014.5 0.0
28/04:30pm 30.3 24.7 5.6 21 13.0 SW 24 32 13 17 1014.9 1014.8 0.0
28/04:00pm 30.2 24.1 4.8 20 13.2 SW 26 33 14 18 1015.1 1015.0 0.0
28/03:30pm 30.2 24.1 4.8 20 13.2 SW 26 33 14 18 1015.4 1015.3 0.0
28/03:00pm 29.4 22.8 6.1 23 12.3 SW 30 35 16 19 1015.6 1015.5 0.0
28/02:30pm 30.8 25.0 4.5 19 13.6 SW 24 32 13 17 1015.8 1015.7 0.0
28/02:00pm 30.2 25.5 6.1 22 12.8 SW 20 28 11 15 1016.1 1016.0 0.0
28/01:30pm 30.3 25.5 8.7 26 12.0 SW 24 32 13 17 1016.5 1016.4 0.0
28/01:00pm 29.8 25.3 7.1 24 12.2 WSW 20 26 11 14 1016.8 1016.7 0.0
28/12:30pm 29.7 27.0 3.6 19 13.2 E 7 15 4 8 1017.4 1017.3 0.0
28/12:00pm 28.7 26.0 3.5 20 12.7 SE 7 11 4 6 1017.8 1017.7 0.0
28/11:30am 28.7 26.2 4.9 22 12.2 ESE 7 15 4 8 1018.2 1018.1 0.0
28/11:00am 26.7 24.5 5.1 25 11.0 N 6 11 3 6 1018.5 1018.4 0.0
28/10:30am 25.6 23.4 5.2 27 10.3 NW 6 9 3 5 1019.1 1019.0 0.0
28/10:00am 25.0 22.9 6.7 31 9.5 W 7 11 4 6 1019.4 1019.3 0.0
28/09:30am 23.6 22.0 6.4 33 8.8 S 4 9 2 5 1019.5 1019.4 0.0
28/09:00am 21.3 19.6 6.0 37 7.7 SW 4 7 2 4 1019.8 1019.7 0.0
28/08:30am 19.5 17.5 6.3 42 6.6 W 6 9 3 5 1019.9 1019.8 0.0
28/08:00am 17.6 15.5 6.5 48 5.5 NW 7 9 4 5 1019.8 1019.7 0.0
28/07:30am 16.1 13.9 6.0 51 4.9 NNW 7 7 4 4 1019.6 1019.5 0.0
28/07:00am 13.6 11.7 6.7 63 3.3 NNE 6 7 3 4 1019.5 1019.4 0.0
28/06:30am 12.3 9.7 6.1 66 2.9 ENE 9 9 5 5 1019.5 1019.4 0.0
28/06:00am 10.5 7.9 5.9 73 2.1 NNE 9 11 5 6 1019.4 1019.3 0.0
28/05:30am 10.2 8.7 5.2 71 2.3 NNE 2 9 1 5 1019.3 1019.2 0.0
28/05:00am 11.6 10.8 6.3 70 2.5 CALM 0 6 0 3 1019.1 1019.0 0.0
28/04:30am 10.6 8.3 5.6 71 2.3 W 7 9 4 5 1018.9 1018.8 0.0
28/04:00am 11.2 9.1 5.9 70 2.5 WNW 6 7 3 4 1018.5 1018.4 0.0
28/03:30am 11.5 9.4 5.6 67 2.7 N 6 7 3 4 1018.6 1018.5 0.0
28/03:00am 12.7 11.7 5.8 63 3.2 CALM 0 0 0 0 1018.6 1018.5 0.0
28/02:30am 12.2 11.2 5.6 64 3.1 CALM 0 6 0 3 1018.8 1018.7 0.0
28/02:00am 12.6 11.2 5.3 61 3.4 NW 2 6 1 3 1018.9 1018.8 0.0
28/01:30am 12.7 10.3 5.4 61 3.4 W 7 7 4 4 1019.2 1019.1 0.0
28/01:00am 12.2 9.8 5.1 62 3.3 W 7 7 4 4 1019.5 1019.4 0.0
28/12:30am 14.2 13.0 4.5 52 4.5 CALM 0 0 0 0 1019.7 1019.6 0.0
28/12:00am 16.9 14.2 3.9 42 6.0 SSE 7 11 4 6 1020.0 1019.9 0.0
 
Date/Time
CDT
Tmp

°C
App
Tmp
°C
Dew
Point
°C
Rel
Hum
%
Delta-T

°C
Wind Press
QNH
hPa
Press
MSL
hPa
Rain
since
9 am
mm
Dir
 
Spd
km/h
Gust
km/h
Spd
kts
Gust
kts
27/11:30pm 17.1 14.0 3.4 40 6.3 S 9 13 5 7 1020.3 1020.2 0.0
27/11:00pm 17.4 14.3 3.7 40 6.4 SSE 9 15 5 8 1020.4 1020.3 0.0
27/10:30pm 18.1 15.0 3.6 38 6.8 SSE 9 15 5 8 1020.7 1020.6 0.0
27/10:00pm 18.4 15.9 4.9 41 6.5 SE 7 11 4 6 1020.9 1020.8 0.0
27/09:30pm 19.4 15.9 5.5 40 6.8 SE 13 17 7 9 1020.9 1020.8 0.0
27/09:00pm 20.4 17.1 4.8 36 7.6 SSE 11 13 6 7 1020.9 1020.8 0.0
27/08:30pm 21.8 17.8 3.0 29 8.9 ESE 13 22 7 12 1020.8 1020.7 0.0
27/08:00pm 23.0 18.6 5.0 31 9.0 SE 17 24 9 13 1020.6 1020.5 0.0
27/07:30pm 24.3 19.6 5.1 29 9.6 SE 19 26 10 14 1020.4 1020.3 0.0
27/07:00pm 25.8 21.4 4.9 26 10.6 SE 17 22 9 12 1019.9 1019.8 0.0
27/06:30pm 26.4 22.1 5.4 26 10.7 SSE 17 26 9 14 1019.6 1019.5 0.0
27/06:00pm 26.7 21.8 5.1 25 11.0 SE 20 30 11 16 1019.3 1019.2 0.0
27/05:30pm 27.6 23.3 5.2 24 11.5 SE 17 22 9 12 1019.2 1019.1 0.0
27/05:00pm 28.0 23.8 5.6 24 11.6 SSE 17 20 9 11 1019.3 1019.2 0.0
27/04:30pm 27.4 21.9 10.6 35 9.5 WSW 30 37 16 20 1019.3 1019.2 0.0
27/04:00pm 26.4 20.8 10.1 36 9.1 SW 30 37 16 20 1019.7 1019.6 0.0
27/03:30pm 26.6 21.4 11.5 39 8.6 SW 30 35 16 19 1019.8 1019.7 0.0
27/03:00pm 26.2 20.8 10.8 38 8.6 WSW 30 35 16 19 1020.2 1020.1 0.0
27/02:30pm 26.8 21.9 11.3 38 8.8 SSW 28 35 15 19 1020.6 1020.5 0.0
27/02:00pm 26.3 23.4 9.6 35 9.2 SSW 15 39 8 21 1020.9 1020.8 0.0
27/01:30pm 26.1 23.6 8.1 32 9.6 SSE 11 19 6 10 1021.3 1021.2 0.0
27/01:00pm 25.8 23.4 8.8 34 9.2 SSE 11 19 6 10 1021.8 1021.7 0.0
27/12:30pm 25.6 23.1 8.1 33 9.3 S 11 24 6 13 1022.0 1021.9 0.0
27/12:00pm 24.7 22.2 8.2 35 8.8 SSE 11 19 6 10 1022.3 1022.2 0.0
27/11:30am 24.5 22.2 8.9 37 8.4 ESE 11 20 6 11 1022.8 1022.7 0.0
27/11:00am 23.1 20.7 8.8 40 7.6 E 11 19 6 10 1023.0 1022.9 0.0
27/10:30am 22.3 19.8 8.4 41 7.3 SSE 11 20 6 11 1023.3 1023.2 0.0
27/10:00am 22.0 19.4 9.5 45 6.7 ESE 13 19 7 10 1023.4 1023.3 0.0
27/09:30am 20.5 17.5 9.4 49 5.9 ESE 15 22 8 12 1023.8 1023.7 0.0
27/09:00am 19.6 15.9 9.5 52 5.3 E 19 24 10 13 1023.8 1023.7 0.0
27/08:30am 19.0 16.1 9.8 55 4.9 E 15 22 8 12 1023.8 1023.7 0.0
27/08:00am 17.9 14.7 9.8 59 4.3 ESE 17 24 9 13 1023.8 1023.7 0.0
27/07:30am 16.8 14.2 9.2 61 3.9 ESE 13 24 7 13 1023.7 1023.6 0.0
27/07:00am 16.0 12.6 9.2 64 3.5 ESE 17 28 9 15 1023.2 1023.1 0.0
27/06:30am 15.4 11.9 8.6 64 3.4 ESE 17 28 9 15 1023.1 1023.0 0.0
27/06:00am 15.0 11.5 8.9 67 3.1 ESE 17 30 9 16 1022.6 1022.5 0.0
27/05:30am 14.7 12.4 9.1 69 2.8 SE 11 15 6 8 1022.6 1022.5 0.0
27/05:00am 15.1 11.8 9.5 69 2.9 SE 17 22 9 12 1022.6 1022.5 0.0
27/04:30am 15.3 12.9 9.9 70 2.8 ESE 13 17 7 9 1022.4 1022.3 0.0
27/04:00am 15.4 13.9 10.6 73 2.5 SE 9 15 5 8 1022.3 1022.2 0.0
27/03:30am 15.5 14.5 10.9 74 2.4 SSE 7 17 4 9 1022.0 1021.9 0.0
27/03:00am 15.4 13.6 11.0 75 2.3 SSE 11 17 6 9 1022.1 1022.0 0.0
27/02:30am 15.6 13.5 11.0 74 2.4 SE 13 24 7 13 1022.3 1022.2 0.0
27/02:00am 15.2 13.8 10.8 75 2.3 SSE 9 13 5 7 1022.5 1022.4 0.0
27/01:30am 15.3 13.5 10.7 74 2.4 SSE 11 15 6 8 1022.8 1022.7 0.0
27/01:00am 15.3 13.5 10.7 74 2.4 SSE 11 17 6 9 1023.1 1023.0 0.0
27/12:30am 14.4 13.3 10.0 75 2.3 S 6 7 3 4 1023.3 1023.2 0.0
27/12:00am 15.7 14.6 10.0 69 3.0 SSE 6 9 3 5 1023.4 1023.3 0.0
 
Date/Time
CDT
Tmp

°C
App
Tmp
°C
Dew
Point
°C
Rel
Hum
%
Delta-T

°C
Wind Press
QNH
hPa
Press
MSL
hPa
Rain
since
9 am
mm
Dir
 
Spd
km/h
Gust
km/h
Spd
kts
Gust
kts
26/11:30pm 16.0 14.4 10.3 69 3.0 SSE 9 15 5 8 1023.4 1023.3 0.0
26/11:00pm 16.0 14.3 9.9 67 3.2 S 9 11 5 6 1023.4 1023.3 0.0
26/10:30pm 16.3 14.2 9.9 66 3.3 S 11 19 6 10 1023.4 1023.3 0.0
26/10:00pm 16.5 13.6 9.7 64 3.6 SSE 15 20 8 11 1023.1 1023.0 0.0
26/09:30pm 16.7 13.4 9.6 63 3.7 SSE 17 28 9 15 1022.8 1022.7 0.0
26/09:00pm 17.2 13.8 9.1 59 4.2 SE 17 24 9 13 1022.6 1022.5 0.0
26/08:30pm 17.8 14.3 8.9 56 4.6 SE 17 24 9 13 1022.4 1022.3 0.0
26/08:00pm 18.8 14.5 7.9 49 5.6 ESE 20 32 11 17 1022.0 1021.9 0.0
26/07:30pm 19.9 15.2 7.6 45 6.3 ESE 22 33 12 18 1021.7 1021.6 0.0
26/07:00pm 21.5 17.2 7.7 41 7.2 SE 20 32 11 17 1021.1 1021.0 0.0
26/06:30pm 22.5 18.0 7.1 37 7.9 SSE 20 28 11 15 1020.7 1020.6 0.0
26/06:00pm 23.1 18.8 7.2 36 8.2 SE 19 26 10 14 1020.3 1020.2 0.0
26/05:30pm 23.9 19.5 7.5 35 8.6 SE 20 28 11 15 1020.1 1020.0 0.0
26/05:00pm 24.6 19.8 7.3 33 9.1 SSE 22 33 12 18 1020.1 1020.0 0.0
26/04:30pm 24.5 20.6 9.3 38 8.2 WSW 20 24 11 13 1020.1 1020.0 0.0
26/04:00pm 23.8 19.1 10.5 43 7.4 SSW 26 33 14 18 1020.4 1020.3 0.0
26/03:30pm 23.1 17.9 10.2 44 7.0 S 28 35 15 19 1020.8 1020.7 0.0
26/03:00pm 22.5 16.9 10.0 45 6.8 SSW 30 39 16 21 1021.0 1020.9 0.0
26/02:30pm 22.8 17.4 9.6 43 7.1 SSW 28 37 15 20 1021.6 1021.5 0.0
26/02:00pm 21.6 15.6 8.8 44 6.8 SW 30 33 16 18 1021.9 1021.8 0.0
26/01:30pm 21.2 15.9 9.8 48 6.1 SW 28 35 15 19 1022.3 1022.2 0.0
26/01:00pm 20.4 15.8 9.6 50 5.8 SW 24 35 13 19 1022.8 1022.7 0.0
26/12:30pm 20.6 16.7 9.5 49 5.9 SSW 20 24 11 13 1023.3 1023.2 0.0
26/12:00pm 19.8 15.7 8.8 49 5.7 SSW 20 30 11 16 1023.7 1023.6 0.0
26/11:30am 19.9 16.2 7.9 46 6.2 SSW 17 24 9 13 1024.0 1023.9 0.0
26/11:00am 19.7 16.3 7.8 46 6.1 S 15 24 8 13 1024.2 1024.1 0.0
26/10:30am 18.8 15.6 6.9 46 5.9 S 13 20 7 11 1024.2 1024.1 0.0
26/10:00am 17.9 15.8 6.7 48 5.6 S 7 17 4 9 1024.2 1024.1 0.0
26/09:30am 17.7 15.3 7.2 50 5.2 SSE 9 15 5 8 1024.2 1024.1 0.0
26/09:00am 17.4 14.7 7.5 52 5.0 ESE 11 17 6 9 1024.1 1024.0 0.0
26/08:30am 16.6 13.6 7.5 55 4.5 ESE 13 17 7 9 1023.9 1023.8 0.0
26/08:00am 15.4 13.6 7.9 61 3.8 SE 7 11 4 6 1023.6 1023.5 0.0
26/07:30am 13.9 12.0 7.7 66 3.0 SSE 7 9 4 5 1023.2 1023.1 0.0
26/07:00am 11.6 11.2 8.3 80 1.6 CALM 0 0 0 0 1023.0 1022.9 0.0
26/06:30am 9.9 9.3 7.5 85 1.1 CALM 0 0 0 0 1022.8 1022.7 0.0
26/06:00am 9.7 7.7 7.3 85 1.1 NNE 7 9 4 5 1022.5 1022.4 0.0
26/05:30am 9.2 7.2 7.0 86 1.0 NNE 7 9 4 5 1022.3 1022.2 0.0
26/05:00am 10.2 8.5 7.6 84 1.2 NE 6 7 3 4 1022.0 1021.9 0.0
26/04:30am 9.8 7.9 6.9 82 1.4 NE 6 9 3 5 1021.9 1021.8 0.0
26/04:00am 10.0 9.4 7.3 83 1.3 CALM 0 0 0 0 1021.9 1021.8 0.0
26/03:30am 10.0 9.0 7.3 83 1.3 N 2 6 1 3 1021.9 1021.8 0.0
26/03:00am 10.3 8.8 7.0 80 1.6 N 4 6 2 3 1022.0 1021.9 0.0
26/02:30am 10.3 9.2 7.0 80 1.6 N 2 9 1 5 1022.1 1022.0 0.0
26/02:00am 12.1 11.0 7.0 71 2.4 SSE 2 7 1 4 1022.1 1022.0 0.0
26/01:30am 13.5 11.9 7.9 69 2.8 S 6 9 3 5 1022.2 1022.1 0.0
26/01:00am 13.6 12.0 7.8 68 2.9 S 6 7 3 4 1022.5 1022.4 0.0
26/12:30am 13.8 12.2 7.8 67 3.0 SSE 6 7 3 4 1022.7 1022.6 0.0
26/12:00am 14.1 12.3 7.9 66 3.1 SSE 7 11 4 6 1022.9 1022.8 0.0
 
Date/Time
CDT
Tmp

°C
App
Tmp
°C
Dew
Point
°C
Rel
Hum
%
Delta-T

°C
Wind Press
QNH
hPa
Press
MSL
hPa
Rain
since
9 am
mm
Dir
 
Spd
km/h
Gust
km/h
Spd
kts
Gust
kts
25/11:30pm 14.4 12.6 7.9 65 3.2 SSE 7 9 4 5 1023.1 1023.0 0.0
25/11:00pm 14.8 12.2 7.8 63 3.5 S 11 13 6 7 1023.1 1023.0 0.0
25/10:30pm 15.4 12.4 7.9 61 3.7 SE 13 17 7 9 1023.2 1023.1 0.0
25/10:00pm 15.9 12.6 7.9 59 4.0 SSE 15 20 8 11 1023.2 1023.1 0.0
25/09:30pm 16.5 13.3 8.5 59 4.1 SE 15 22 8 12 1022.9 1022.8 0.0
25/09:00pm 16.4 13.2 8.6 60 4.0 SSW 15 20 8 11 1022.6 1022.5 0.0
25/08:30pm 16.6 12.9 7.8 56 4.4 S 17 20 9 11 1022.6 1022.5 0.0
25/08:00pm 17.3 12.9 6.5 49 5.3 S 19 24 10 13 1022.4 1022.3 0.0
25/07:30pm 18.0 13.3 5.9 45 5.9 S 20 26 11 14 1022.0 1021.9 0.0
25/07:00pm 19.0 13.7 6.8 45 6.1 S 24 30 13 16 1021.8 1021.7 0.0
25/06:30pm 19.3 13.6 6.8 44 6.3 S 26 33 14 18 1021.5 1021.4 0.0
25/06:00pm 20.2 14.1 3.0 32 8.0 S 24 30 13 16 1021.5 1021.4 0.0

Latest Capital City Observations: Canberra | Sydney | Melbourne | Brisbane | Adelaide | Perth | Hobart | Darwin

Other Formats:

Comma delimited format used in spreadsheet applications
http://www.bom.gov.au/fwo/IDS60901/IDS60901.95676.axf

JavaScript Object Notation format (JSON) in row-major order
http://www.bom.gov.au/fwo/IDS60901/IDS60901.95676.json